Mobridge, SD

11:35 PM CDT on October 24, 2014 (GMT -0500)
NCSD Skywarn | Change Station
CLOSE
Current Station
Personal Weather Station
Location: Mobridge, SD
Elevation: 1677 ft
Nearby Weather Stations

Elev 1677 ft 45.54 °N, 100.44 °W | Updated 2 seconds ago

Partly Cloudy
Partly Cloudy
53.7 °F
Feels Like 53.7 °F
N
0.0
Wind Variable Wind from SW
Gusts 0.7 mph

Today
High -- | Low -- °F
--% Chance of Precip.
Yesterday
High -- | Low -- °F
Precip. -- in
8:10 AM 6:40 PM
New Moon, 2% visible
Pressure 30.05 in
Visibility 10.0 miles
Clouds Few 12000 ft
Dew Point 36 °F
Humidity 52%
Rainfall 0.00 in
Snow Depth Not available.
UV 0.0 out of 12
Pollen 1.80 out of 12
Air Quality Not available.
Flu Activity Sporadic
METAR KMBG 250352Z AUTO 30004KT 10SM FEW120 13/03 A3004 RMK AO2 SLP175 T01330033

More Conditions Fewer Conditions

Pressure 30.05 in
Visibility 10.0 miles
Clouds Few 12000 ft
Dew Point 36 °F
Humidity 52%
Rainfall 0.00 in
Snow Depth Not available.
UV 0.0 out of 12
Pollen 1.80 out of 12
Air Quality Not available.
Flu Activity Sporadic
METAR KMBG 250352Z AUTO 30004KT 10SM FEW120 13/03 A3004 RMK AO2 SLP175 T01330033

More Conditions Fewer Conditions

10-Day Weather Forecast

Almanac

Astronomy

Oct. 24, 2014 Rise Set
Actual Time 8:10 AM CDT 6:40 PM CDT
Civil Twilight 7:39 AM CDT 7:11 PM CDT
Nautical Twilight 7:05 AM CDT 7:45 PM CDT
Astronomical Twilight 6:30 AM CDT 8:19 PM CDT
Moon 8:52 AM CDT (10/24) 7:19 PM CDT (10/24)
Length of Visible Light 11h 31m
Length of Day
10h 30m
Tomorrow will be 2m 58s shorter.
New Moon, 2% of the Moon is Illuminated
Oct 25
New Moon
Oct 30
First Quarter
Nov 6
Full
Nov 14
Last Quarter
Nov 22
New

Yesterday's Extremes

State Highs State Lows

Community

WunderPhotos

Upload Photos

1,764,782 photos uploaded!

Nearby

Snow Depth

Station Depth Elevation
North Rapid Creek 1 in 6130 ft
Blind Park 1 in 6890 ft

Earthquake Activity

City Distance Mag. Time & Date
No recent earthquake activity has been reported nearby.
Minimum magnitude displayed is 2.5.

Coastal Water Temperatures

Place Temperature
No Stations Reporting

Nearby Weather Stations